createdAt,value
2017-02-27T00:00:51.038Z,998
2017-02-27T00:01:57.023Z,998
2017-02-27T00:03:03.007Z,998
2017-02-27T00:04:08.993Z,998
2017-02-27T00:05:14.973Z,998
2017-02-27T00:06:20.959Z,998
2017-02-27T00:07:26.944Z,998
2017-02-27T00:08:32.924Z,998
2017-02-27T00:09:38.240Z,998
2017-02-27T00:10:43.562Z,998
2017-02-27T00:11:49.547Z,998
2017-02-27T00:12:55.523Z,998
2017-02-27T00:14:01.512Z,998
2017-02-27T00:15:07.496Z,998
2017-02-27T00:16:13.483Z,998
2017-02-27T00:17:19.467Z,998
2017-02-27T00:18:25.452Z,998
2017-02-27T00:19:31.430Z,998
2017-02-27T00:20:37.412Z,998
2017-02-27T00:21:43.397Z,998
2017-02-27T00:22:49.381Z,998
2017-02-27T00:23:55.359Z,998
2017-02-27T00:25:01.348Z,998
2017-02-27T00:26:07.332Z,998
2017-02-27T00:27:12.217Z,998
2017-02-27T00:28:18.194Z,998
2017-02-27T00:29:24.181Z,998
2017-02-27T00:30:30.163Z,998
2017-02-27T00:31:36.146Z,998
2017-02-27T00:32:41.463Z,998
2017-02-27T00:33:47.451Z,998
2017-02-27T00:34:53.435Z,998
2017-02-27T00:35:59.418Z,998
2017-02-27T00:37:05.404Z,998
2017-02-27T00:38:11.385Z,998
2017-02-27T00:39:17.377Z,998
2017-02-27T00:40:22.252Z,998
2017-02-27T00:41:28.233Z,998
2017-02-27T00:42:34.219Z,998
2017-02-27T00:43:40.204Z,998
2017-02-27T00:44:46.190Z,998
2017-02-27T00:45:52.170Z,998
2017-02-27T00:46:58.155Z,998
2017-02-27T00:48:04.138Z,998
2017-02-27T00:49:10.121Z,998
2017-02-27T00:50:16.102Z,998
2017-02-27T00:51:22.086Z,998
2017-02-27T00:52:27.404Z,998
2017-02-27T00:53:33.389Z,998
2017-02-27T00:54:39.374Z,998
2017-02-27T00:55:45.362Z,998
2017-02-27T00:56:51.345Z,998
2017-02-27T00:57:57.329Z,998
2017-02-27T00:59:03.311Z,998
2017-02-27T01:00:09.298Z,998
2017-02-27T01:01:15.282Z,998
2017-02-27T01:02:20.166Z,998
2017-02-27T01:03:25.486Z,998
2017-02-27T01:04:31.470Z,998
2017-02-27T01:05:37.455Z,998
2017-02-27T01:06:43.438Z,998
2017-02-27T01:07:49.420Z,998
2017-02-27T01:08:55.402Z,998
2017-02-27T01:10:01.389Z,998
2017-02-27T01:11:07.372Z,998
2017-02-27T01:12:13.358Z,998
2017-02-27T01:13:19.343Z,998
2017-02-27T01:14:25.327Z,998
2017-02-27T01:15:31.311Z,998
2017-02-27T01:16:37.294Z,998
2017-02-27T01:17:43.280Z,998
2017-02-27T01:18:48.596Z,998
2017-02-27T01:19:53.915Z,998
2017-02-27T01:20:59.899Z,998
2017-02-27T01:22:05.884Z,998
2017-02-27T01:23:11.870Z,998
2017-02-27T01:24:17.853Z,998
2017-02-27T01:25:23.834Z,998
2017-02-27T01:26:29.161Z,998
2017-02-27T01:27:34.043Z,998
2017-02-27T01:28:40.020Z,998
2017-02-27T01:29:46.006Z,998
2017-02-27T01:30:51.990Z,998
2017-02-27T01:31:57.982Z,998
2017-02-27T01:33:03.955Z,998
2017-02-27T01:34:09.939Z,998
2017-02-27T01:38:16.290Z,998
2017-02-27T01:52:38.070Z,998
2017-02-27T01:53:42.953Z,998
2017-02-27T01:54:48.940Z,998
2017-02-27T01:55:54.927Z,998
2017-02-27T01:57:00.913Z,998
2017-02-27T01:58:06.892Z,998
2017-02-27T01:59:12.215Z,998
2017-02-27T02:00:18.197Z,998
2017-02-27T02:01:24.184Z,998
2017-02-27T02:02:29.066Z,998
2017-02-27T02:03:35.049Z,998
2017-02-27T02:04:41.030Z,998
2017-02-27T02:05:47.019Z,998
2017-02-27T02:06:53.005Z,998
2017-02-27T02:07:58.993Z,998
2017-02-27T02:09:03.871Z,998
2017-02-27T02:10:09.858Z,998
2017-02-27T02:11:15.838Z,998
2017-02-27T02:12:21.818Z,998
2017-02-27T02:13:27.803Z,998
2017-02-27T02:14:33.787Z,998
2017-02-27T02:15:39.773Z,998
2017-02-27T02:16:45.756Z,998
2017-02-27T02:17:51.740Z,997
2017-02-27T02:18:57.722Z,998
2017-02-27T02:20:03.045Z,998
2017-02-27T02:21:09.027Z,998
2017-02-27T02:22:15.015Z,998
2017-02-27T02:23:20.997Z,998
2017-02-27T02:24:26.981Z,998
2017-02-27T02:25:32.965Z,998
2017-02-27T02:26:37.853Z,998
2017-02-27T02:27:43.838Z,998
2017-02-27T02:28:49.821Z,997
2017-02-27T02:29:55.802Z,997
2017-02-27T02:31:01.785Z,998
2017-02-27T02:32:07.770Z,998
2017-02-27T02:33:13.750Z,998
2017-02-27T02:34:19.731Z,998
2017-02-27T02:35:25.716Z,997
2017-02-27T02:36:31.704Z,997
2017-02-27T02:37:37.686Z,997
2017-02-27T02:38:43.668Z,997
2017-02-27T02:39:49.651Z,997
2017-02-27T02:40:55.638Z,997
2017-02-27T02:42:01.623Z,998
2017-02-27T02:43:06.503Z,997
2017-02-27T02:44:12.485Z,997
2017-02-27T02:45:18.465Z,997
2017-02-27T02:46:24.450Z,997
2017-02-27T02:47:30.430Z,997
2017-02-27T02:48:36.414Z,997
2017-02-27T02:49:42.397Z,997
2017-02-27T02:50:48.380Z,997
2017-02-27T02:51:54.361Z,997
2017-02-27T02:53:00.345Z,997
2017-02-27T02:54:06.331Z,997
2017-02-27T02:55:12.317Z,997
2017-02-27T02:56:18.300Z,997
2017-02-27T02:57:24.284Z,997
2017-02-27T02:58:30.269Z,997
2017-02-27T02:59:36.246Z,997
2017-02-27T03:00:42.228Z,997
2017-02-27T03:01:48.212Z,997
2017-02-27T03:02:54.197Z,997
2017-02-27T03:04:00.179Z,997
2017-02-27T03:05:05.500Z,997
2017-02-27T03:06:11.511Z,997
2017-02-27T03:07:17.467Z,997
2017-02-27T03:08:23.453Z,997
2017-02-27T03:09:29.439Z,997
2017-02-27T03:10:35.425Z,997
2017-02-27T03:11:41.407Z,997
2017-02-27T03:12:47.390Z,997
2017-02-27T03:13:53.375Z,997
2017-02-27T03:14:59.361Z,997
2017-02-27T03:16:04.684Z,997
2017-02-27T03:17:10.666Z,997
2017-02-27T03:18:16.644Z,997
2017-02-27T03:19:21.967Z,997
2017-02-27T03:20:27.953Z,997
2017-02-27T03:21:33.932Z,997
2017-02-27T03:22:39.920Z,997
2017-02-27T03:23:45.907Z,997
2017-02-27T03:24:51.889Z,997
2017-02-27T03:25:57.868Z,997
2017-02-27T03:27:03.853Z,997
2017-02-27T03:28:09.834Z,997
2017-02-27T03:29:15.818Z,997
2017-02-27T03:30:21.800Z,997
2017-02-27T03:31:27.786Z,997
2017-02-27T03:32:33.769Z,997
2017-02-27T03:33:39.752Z,997
2017-02-27T03:34:45.734Z,997
2017-02-27T03:35:51.724Z,997
2017-02-27T03:36:57.704Z,997
2017-02-27T03:38:03.687Z,997
2017-02-27T03:39:09.675Z,997
2017-02-27T03:40:15.651Z,997
2017-02-27T03:41:20.972Z,997
2017-02-27T03:42:26.292Z,997
2017-02-27T03:43:31.616Z,997
2017-02-27T03:44:37.594Z,997
2017-02-27T03:45:43.578Z,997
2017-02-27T03:46:49.567Z,997
2017-02-27T03:47:55.556Z,997
2017-02-27T03:49:00.435Z,997
2017-02-27T03:50:05.760Z,997
2017-02-27T03:51:11.744Z,997
2017-02-27T03:52:17.728Z,997
2017-02-27T03:53:23.045Z,997
2017-02-27T03:54:29.029Z,997
2017-02-27T03:55:35.013Z,997
2017-02-27T03:56:40.995Z,997
2017-02-27T03:57:46.319Z,997
2017-02-27T03:58:52.304Z,997
2017-02-27T03:59:58.286Z,997
2017-02-27T04:01:04.268Z,997
2017-02-27T04:02:09.149Z,997
2017-02-27T04:03:15.133Z,997
2017-02-27T04:04:21.119Z,997
2017-02-27T04:05:27.106Z,997
2017-02-27T04:06:33.086Z,997
2017-02-27T04:07:39.079Z,997
2017-02-27T04:08:45.064Z,997
2017-02-27T04:09:51.041Z,997
2017-02-27T04:10:57.025Z,997
2017-02-27T04:12:03.011Z,997
2017-02-27T04:13:08.998Z,997
2017-02-27T04:14:14.319Z,997
2017-02-27T04:15:20.304Z,997
2017-02-27T04:16:25.622Z,997
2017-02-27T04:17:31.608Z,997
2017-02-27T04:18:35.826Z,997
2017-02-27T04:19:41.808Z,997
2017-02-27T04:20:47.795Z,997
2017-02-27T04:21:53.776Z,997
2017-02-27T04:22:59.761Z,997
2017-02-27T04:24:05.082Z,997
2017-02-27T04:25:11.065Z,997
2017-02-27T04:26:17.049Z,997
2017-02-27T04:27:23.031Z,997
2017-02-27T04:28:29.013Z,997
2017-02-27T04:29:34.999Z,997
2017-02-27T04:30:40.981Z,997
2017-02-27T04:31:46.969Z,997
2017-02-27T04:32:52.955Z,997
2017-02-27T04:33:58.940Z,997
2017-02-27T04:35:04.921Z,997
2017-02-27T04:36:09.582Z,997
2017-02-27T04:37:15.567Z,997
2017-02-27T04:38:20.889Z,997
2017-02-27T04:39:26.867Z,997
2017-02-27T04:40:32.851Z,997
2017-02-27T04:41:38.836Z,997
2017-02-27T04:42:44.821Z,997
2017-02-27T04:43:50.805Z,997
2017-02-27T04:44:55.689Z,997
2017-02-27T04:46:01.670Z,997
2017-02-27T04:47:07.655Z,997
2017-02-27T04:48:13.634Z,997
2017-02-27T04:49:18.522Z,997
2017-02-27T04:50:24.506Z,997
2017-02-27T04:51:30.495Z,997
2017-02-27T04:52:36.474Z,997
2017-02-27T04:53:42.461Z,997
2017-02-27T04:54:48.446Z,997
2017-02-27T04:55:54.424Z,997
2017-02-27T04:57:00.406Z,997
2017-02-27T04:58:06.393Z,997
2017-02-27T04:59:12.378Z,997
2017-02-27T05:00:18.355Z,997
2017-02-27T05:01:24.342Z,997
2017-02-27T05:02:30.328Z,997
2017-02-27T05:03:36.313Z,997
2017-02-27T05:04:42.293Z,997
2017-02-27T05:05:48.280Z,996
2017-02-27T05:06:54.264Z,997
2017-02-27T05:08:00.246Z,996
2017-02-27T05:09:06.228Z,996
2017-02-27T05:10:12.216Z,996
2017-02-27T05:11:17.539Z,997
2017-02-27T05:12:23.516Z,997
2017-02-27T05:13:29.501Z,996
2017-02-27T05:14:35.485Z,996
2017-02-27T05:15:41.473Z,996
2017-02-27T05:16:47.453Z,996
2017-02-27T05:17:53.439Z,996
2017-02-27T05:18:59.425Z,997
2017-02-27T05:20:05.407Z,996
2017-02-27T05:21:11.384Z,996
2017-02-27T05:22:17.369Z,996
2017-02-27T05:23:23.355Z,996
2017-02-27T05:24:29.335Z,996
2017-02-27T05:25:35.318Z,996
2017-02-27T05:26:40.643Z,996
2017-02-27T05:27:46.624Z,996
2017-02-27T05:28:52.607Z,996
2017-02-27T05:29:58.593Z,996
2017-02-27T05:31:04.574Z,996
2017-02-27T05:32:10.556Z,996
2017-02-27T05:33:16.534Z,996
2017-02-27T05:34:22.522Z,996
2017-02-27T05:35:28.506Z,996
2017-02-27T05:36:34.491Z,996
2017-02-27T05:37:40.471Z,996
2017-02-27T05:38:46.453Z,996
2017-02-27T05:39:52.440Z,996
2017-02-27T05:40:58.424Z,996
2017-02-27T05:42:04.406Z,996
2017-02-27T05:43:10.393Z,996
2017-02-27T05:44:16.378Z,996
2017-02-27T05:45:20.601Z,996
2017-02-27T05:46:26.584Z,996
2017-02-27T05:47:32.567Z,996
2017-02-27T05:48:38.550Z,996
2017-02-27T05:49:44.534Z,996
2017-02-27T05:50:50.520Z,996
2017-02-27T05:51:56.503Z,996
2017-02-27T05:53:02.489Z,996
2017-02-27T05:54:08.470Z,996
2017-02-27T05:55:14.460Z,996
2017-02-27T05:56:20.444Z,996
2017-02-27T05:57:26.426Z,996
2017-02-27T05:58:32.403Z,996
2017-02-27T05:59:38.389Z,996
2017-02-27T06:00:44.373Z,996
2017-02-27T06:01:50.359Z,996
2017-02-27T06:02:56.342Z,996
2017-02-27T06:04:02.327Z,996
2017-02-27T06:05:08.314Z,996
2017-02-27T06:06:14.296Z,996
2017-02-27T06:07:20.276Z,996
2017-02-27T06:08:26.263Z,996
2017-02-27T06:09:32.250Z,996
2017-02-27T06:10:38.236Z,996
2017-02-27T06:11:44.217Z,996
2017-02-27T06:12:50.202Z,996
2017-02-27T06:13:56.185Z,996
2017-02-27T06:15:02.172Z,996
2017-02-27T06:16:08.151Z,996
2017-02-27T06:17:14.133Z,996
2017-02-27T06:18:20.118Z,996
2017-02-27T06:19:24.999Z,996
2017-02-27T06:20:30.983Z,996
2017-02-27T06:21:35.868Z,996
2017-02-27T06:22:41.851Z,996
2017-02-27T06:23:47.830Z,996
2017-02-27T06:24:53.810Z,996
2017-02-27T06:25:59.794Z,996
2017-02-27T06:27:05.780Z,996
2017-02-27T06:28:11.760Z,996
2017-02-27T06:29:17.747Z,996
2017-02-27T06:30:23.732Z,996
2017-02-27T06:31:30.985Z,996
2017-02-27T06:32:34.785Z,996
2017-02-27T06:33:40.767Z,996
2017-02-27T06:34:46.752Z,996
2017-02-27T06:35:52.733Z,996
2017-02-27T06:36:58.717Z,996
2017-02-27T06:39:11.733Z,996
2017-02-27T06:40:17.715Z,996
2017-02-27T06:41:23.699Z,996
2017-02-27T06:42:29.683Z,996
2017-02-27T06:43:35.670Z,996
2017-02-27T06:44:39.889Z,996
2017-02-27T06:45:45.876Z,996
2017-02-27T06:46:51.860Z,996
2017-02-27T06:47:57.183Z,996
2017-02-27T06:49:03.165Z,996
2017-02-27T06:50:09.470Z,996
2017-02-27T06:51:15.457Z,996
2017-02-27T06:52:21.444Z,996
2017-02-27T06:53:27.437Z,996
2017-02-27T06:54:34.455Z,996
2017-02-27T06:55:39.780Z,996
2017-02-27T06:56:45.771Z,996
2017-02-27T06:57:51.753Z,996
2017-02-27T06:58:57.731Z,996
2017-02-27T07:00:03.723Z,996
2017-02-27T07:01:09.046Z,996
2017-02-27T07:02:15.034Z,996
2017-02-27T07:03:21.015Z,996
2017-02-27T07:04:26.338Z,996
2017-02-27T07:05:33.723Z,996
2017-02-27T07:06:39.707Z,996
2017-02-27T07:07:45.024Z,996
2017-02-27T07:08:51.016Z,996
2017-02-27T07:09:56.994Z,996
2017-02-27T07:11:01.884Z,996
2017-02-27T07:12:07.867Z,996
2017-02-27T07:13:13.848Z,996
2017-02-27T07:14:19.836Z,996
2017-02-27T07:15:25.818Z,996
2017-02-27T07:16:31.886Z,996
2017-02-27T07:17:37.802Z,996
2017-02-27T07:18:43.809Z,996
2017-02-27T07:19:49.778Z,996
2017-02-27T07:20:55.763Z,996
2017-02-27T07:22:01.751Z,996
2017-02-27T07:23:07.736Z,996
2017-02-27T07:24:13.718Z,996
2017-02-27T07:25:19.705Z,996
2017-02-27T07:26:25.689Z,996
2017-02-27T07:27:31.017Z,996
2017-02-27T07:28:37.003Z,996
2017-02-27T07:29:42.987Z,996
2017-02-27T07:30:48.975Z,996
2017-02-27T07:31:54.967Z,996
2017-02-27T07:33:00.959Z,996
2017-02-27T07:34:06.934Z,996
2017-02-27T07:35:12.917Z,996
2017-02-27T07:36:18.908Z,996
2017-02-27T07:37:24.895Z,996
2017-02-27T07:38:30.879Z,996
2017-02-27T07:39:36.866Z,996
2017-02-27T07:40:42.858Z,996
2017-02-27T07:41:48.845Z,996
2017-02-27T07:42:54.830Z,996
2017-02-27T07:44:00.820Z,996
2017-02-27T07:45:06.141Z,996
2017-02-27T07:46:12.126Z,996
2017-02-27T07:47:18.112Z,996
2017-02-27T07:48:24.103Z,996
2017-02-27T07:49:30.086Z,996
2017-02-27T07:50:36.075Z,996
2017-02-27T07:51:42.061Z,996
2017-02-27T07:52:48.050Z,996
2017-02-27T07:53:53.403Z,996
2017-02-27T07:54:59.387Z,996
2017-02-27T07:56:05.371Z,996
2017-02-27T07:57:11.361Z,996
2017-02-27T07:58:17.349Z,996
2017-02-27T07:59:23.334Z,996
2017-02-27T08:00:29.328Z,996
2017-02-27T08:01:35.349Z,996
2017-02-27T08:02:41.319Z,996
2017-02-27T08:03:47.303Z,996
2017-02-27T08:04:53.288Z,996
2017-02-27T08:05:59.274Z,996
2017-02-27T08:07:05.259Z,996
2017-02-27T08:08:11.248Z,996
2017-02-27T08:09:17.237Z,996
2017-02-27T08:10:23.226Z,995
2017-02-27T08:11:29.212Z,996
2017-02-27T08:12:35.196Z,995
2017-02-27T08:13:41.185Z,996
2017-02-27T08:14:46.066Z,995
2017-02-27T08:15:52.048Z,996
2017-02-27T08:16:58.160Z,996
2017-02-27T08:18:03.394Z,995
2017-02-27T08:19:09.437Z,995
2017-02-27T08:20:15.422Z,995
2017-02-27T08:21:20.746Z,995
2017-02-27T08:22:26.733Z,995
2017-02-27T08:23:32.721Z,995
2017-02-27T08:24:38.711Z,995
2017-02-27T08:25:43.592Z,995
2017-02-27T08:26:49.574Z,995
2017-02-27T08:27:55.562Z,995
2017-02-27T08:29:01.552Z,995
2017-02-27T08:30:07.536Z,995
2017-02-27T08:31:13.525Z,995
2017-02-27T08:32:19.513Z,995
2017-02-27T08:33:25.500Z,995
2017-02-27T08:34:31.486Z,995
2017-02-27T08:35:37.509Z,995
2017-02-27T08:36:43.498Z,995
2017-02-27T08:37:49.490Z,995
2017-02-27T08:38:54.375Z,995
2017-02-27T08:40:00.355Z,995
2017-02-27T08:41:06.340Z,995
2017-02-27T08:42:12.329Z,995
2017-02-27T08:43:18.312Z,995
2017-02-27T08:44:24.302Z,995
2017-02-27T08:45:30.286Z,995
2017-02-27T08:46:35.613Z,995
2017-02-27T08:47:41.591Z,995
2017-02-27T08:48:47.583Z,995
2017-02-27T08:49:53.573Z,995
2017-02-27T08:50:59.584Z,995
2017-02-27T08:52:04.898Z,995
2017-02-27T08:53:10.887Z,995
2017-02-27T08:54:16.870Z,995
2017-02-27T08:55:22.853Z,995
2017-02-27T08:56:28.834Z,995
2017-02-27T08:57:34.823Z,995
2017-02-27T08:58:40.807Z,995
2017-02-27T08:59:46.794Z,995
2017-02-27T09:00:52.779Z,995
2017-02-27T09:01:58.764Z,995
2017-02-27T09:03:04.747Z,995
2017-02-27T09:04:09.634Z,995
2017-02-27T09:05:14.961Z,995
2017-02-27T09:06:20.943Z,995
2017-02-27T09:07:26.928Z,995
2017-02-27T09:08:32.253Z,995
2017-02-27T09:09:38.238Z,995
2017-02-27T09:10:44.226Z,995
2017-02-27T09:11:50.216Z,995
2017-02-27T09:12:56.198Z,995
2017-02-27T09:14:02.189Z,995
2017-02-27T09:15:08.166Z,995
2017-02-27T09:16:14.158Z,995
2017-02-27T09:17:20.141Z,995
2017-02-27T09:18:26.128Z,995
2017-02-27T09:19:32.115Z,995
2017-02-27T09:20:38.105Z,995
2017-02-27T09:21:44.086Z,995
2017-02-27T09:22:50.072Z,995
2017-02-27T09:23:56.057Z,995
2017-02-27T09:25:02.054Z,995
2017-02-27T09:26:08.035Z,995
2017-02-27T09:27:14.020Z,995
2017-02-27T09:28:20.003Z,995
2017-02-27T09:29:25.325Z,995
2017-02-27T09:30:31.311Z,995
2017-02-27T09:31:37.305Z,995
2017-02-27T09:32:42.623Z,995
2017-02-27T09:33:48.604Z,995
2017-02-27T09:34:54.587Z,995
2017-02-27T09:36:00.575Z,995
2017-02-27T09:37:06.565Z,995
2017-02-27T09:38:12.552Z,995
2017-02-27T09:39:17.875Z,995
2017-02-27T09:40:23.861Z,995
2017-02-27T09:41:29.851Z,995
2017-02-27T09:42:35.831Z,995
2017-02-27T09:43:41.816Z,995
2017-02-27T09:44:47.804Z,995
2017-02-27T09:45:53.127Z,994
2017-02-27T09:46:59.117Z,994
2017-02-27T09:48:05.101Z,994
2017-02-27T09:49:11.093Z,995
2017-02-27T09:50:17.074Z,994
2017-02-27T09:51:23.062Z,994
2017-02-27T09:52:29.052Z,994
2017-02-27T09:53:34.375Z,994
2017-02-27T09:54:40.355Z,994
2017-02-27T09:55:45.681Z,994
2017-02-27T09:56:51.668Z,994
2017-02-27T09:57:57.658Z,994
2017-02-27T09:59:03.641Z,994
2017-02-27T10:00:08.528Z,994
2017-02-27T10:01:14.512Z,994
2017-02-27T10:02:20.497Z,994
2017-02-27T10:03:26.492Z,994
2017-02-27T10:04:32.471Z,994
2017-02-27T10:05:38.455Z,994
2017-02-27T10:06:44.444Z,994
2017-02-27T10:07:50.432Z,994
2017-02-27T10:08:55.758Z,994
2017-02-27T10:10:01.747Z,994
2017-02-27T10:11:07.728Z,994
2017-02-27T10:12:13.047Z,994
2017-02-27T10:13:19.042Z,994
2017-02-27T10:14:23.920Z,994
2017-02-27T10:15:29.902Z,994
2017-02-27T10:16:35.893Z,994
2017-02-27T10:17:41.880Z,994
2017-02-27T10:18:47.870Z,994
2017-02-27T10:19:53.189Z,994
2017-02-27T10:20:59.172Z,994
2017-02-27T10:22:05.161Z,994
2017-02-27T10:23:11.145Z,994
2017-02-27T10:24:17.130Z,994
2017-02-27T10:25:23.120Z,994
2017-02-27T10:26:29.104Z,994
2017-02-27T10:27:35.087Z,994
2017-02-27T10:28:41.077Z,994
2017-02-27T10:29:47.063Z,994
2017-02-27T10:30:53.047Z,994
2017-02-27T10:31:59.033Z,994
2017-02-27T10:33:05.020Z,994
2017-02-27T10:34:11.004Z,994
2017-02-27T10:35:16.329Z,994
2017-02-27T10:36:22.321Z,994
2017-02-27T10:37:28.306Z,994
2017-02-27T10:38:34.291Z,994
2017-02-27T10:39:40.283Z,994
2017-02-27T10:40:46.265Z,994
2017-02-27T10:41:52.252Z,994
2017-02-27T10:42:58.234Z,994
2017-02-27T10:44:04.227Z,994
2017-02-27T10:45:10.208Z,994
2017-02-27T10:46:16.195Z,994
2017-02-27T10:47:22.181Z,994
2017-02-27T10:48:28.168Z,994
2017-02-27T10:49:34.152Z,994
2017-02-27T10:50:40.147Z,994
2017-02-27T10:51:46.129Z,994
2017-02-27T10:52:51.010Z,994
2017-02-27T10:53:56.994Z,994
2017-02-27T10:55:02.982Z,994
2017-02-27T10:56:08.971Z,994
2017-02-27T10:57:14.959Z,994
2017-02-27T10:58:20.949Z,994
2017-02-27T10:59:26.929Z,994
2017-02-27T11:00:32.913Z,994
2017-02-27T11:01:38.902Z,994
2017-02-27T11:02:44.888Z,994
2017-02-27T11:03:50.877Z,994
2017-02-27T11:04:56.863Z,994
2017-02-27T11:06:02.852Z,994
2017-02-27T11:07:07.737Z,994
2017-02-27T11:08:13.719Z,994
2017-02-27T11:09:19.705Z,994
2017-02-27T11:10:25.688Z,994
2017-02-27T11:11:31.676Z,994
2017-02-27T11:12:37.660Z,994
2017-02-27T11:13:43.646Z,994
2017-02-27T11:14:49.630Z,993
2017-02-27T11:15:55.618Z,993
2017-02-27T11:17:01.604Z,993
2017-02-27T11:18:07.591Z,993
2017-02-27T11:19:13.577Z,994
2017-02-27T11:20:19.564Z,993
2017-02-27T11:21:24.896Z,994
2017-02-27T11:22:30.889Z,993
2017-02-27T11:23:36.877Z,993
2017-02-27T11:24:42.871Z,993
2017-02-27T11:25:48.849Z,993
2017-02-27T11:26:54.837Z,993
2017-02-27T11:28:00.830Z,993
2017-02-27T11:29:05.057Z,993
2017-02-27T11:30:11.046Z,993
2017-02-27T11:31:17.029Z,993
2017-02-27T11:32:23.023Z,993
2017-02-27T11:33:29.187Z,993
2017-02-27T11:34:35.171Z,993
2017-02-27T11:35:41.164Z,993
2017-02-27T11:36:47.154Z,993
2017-02-27T11:37:53.135Z,993
2017-02-27T11:38:59.120Z,993
2017-02-27T11:40:05.105Z,993
2017-02-27T11:41:11.094Z,993
2017-02-27T11:42:17.077Z,993
2017-02-27T11:43:23.059Z,993
2017-02-27T11:44:28.150Z,993
2017-02-27T11:45:34.137Z,993
2017-02-27T11:46:40.123Z,993
2017-02-27T11:47:46.110Z,993
2017-02-27T11:48:52.096Z,993
2017-02-27T11:49:56.979Z,993
2017-02-27T11:51:02.962Z,993
2017-02-27T11:52:08.945Z,993
2017-02-27T11:53:14.938Z,993
2017-02-27T11:54:20.925Z,993
2017-02-27T11:55:26.245Z,993
2017-02-27T11:56:32.237Z,993
2017-02-27T11:57:38.231Z,993
2017-02-27T11:58:44.217Z,993
2017-02-27T11:59:50.200Z,993
2017-02-27T12:00:56.383Z,993
2017-02-27T12:02:02.371Z,993
2017-02-27T12:03:08.358Z,992
2017-02-27T12:04:13.682Z,992
2017-02-27T12:05:19.818Z,992
2017-02-27T12:06:25.801Z,992
2017-02-27T12:07:32.373Z,992
2017-02-27T12:08:38.345Z,993
2017-02-27T12:09:44.328Z,992
2017-02-27T12:10:48.550Z,992
2017-02-27T12:11:54.805Z,992
2017-02-27T12:13:00.786Z,992
2017-02-27T12:14:06.773Z,992
2017-02-27T12:15:12.759Z,992
2017-02-27T12:16:18.749Z,992
2017-02-27T12:17:24.887Z,992
2017-02-27T12:18:30.875Z,992
2017-02-27T12:19:36.863Z,992
2017-02-27T12:20:41.746Z,992
2017-02-27T12:21:47.729Z,992
2017-02-27T12:22:53.716Z,992
2017-02-27T12:23:59.699Z,992
2017-02-27T12:25:05.684Z,992
2017-02-27T12:26:11.672Z,992
2017-02-27T12:27:16.996Z,992
2017-02-27T12:28:22.982Z,992
2017-02-27T12:29:28.966Z,992
2017-02-27T12:30:34.984Z,992
2017-02-27T12:31:40.339Z,992
2017-02-27T12:32:46.327Z,992
2017-02-27T12:33:51.804Z,992
2017-02-27T12:34:57.788Z,992
2017-02-27T12:36:03.115Z,992
2017-02-27T12:37:09.103Z,992
2017-02-27T12:38:15.085Z,992
2017-02-27T12:39:21.070Z,992
2017-02-27T12:40:27.058Z,992
2017-02-27T12:41:33.046Z,992
2017-02-27T12:42:39.031Z,992
2017-02-27T12:43:45.019Z,992
2017-02-27T12:44:51.007Z,992
2017-02-27T12:45:56.995Z,992
2017-02-27T12:47:02.999Z,992
2017-02-27T12:48:08.983Z,992
2017-02-27T12:49:14.977Z,992
2017-02-27T12:50:20.966Z,992
2017-02-27T12:51:26.953Z,992
2017-02-27T12:52:31.837Z,992
2017-02-27T12:53:37.829Z,992
2017-02-27T12:54:43.812Z,992
2017-02-27T12:55:49.797Z,992
2017-02-27T12:56:55.781Z,992
2017-02-27T12:58:01.769Z,992
2017-02-27T12:59:07.753Z,992
2017-02-27T13:00:13.739Z,991
2017-02-27T13:01:19.727Z,992
2017-02-27T13:02:25.718Z,991
2017-02-27T13:03:31.816Z,991
2017-02-27T13:04:37.806Z,991
2017-02-27T13:05:43.804Z,991
2017-02-27T13:06:49.786Z,991
2017-02-27T13:07:55.770Z,991
2017-02-27T13:09:01.758Z,991
2017-02-27T13:10:07.744Z,991
2017-02-27T13:11:13.725Z,991
2017-02-27T13:12:19.054Z,991
2017-02-27T13:13:24.381Z,991
2017-02-27T13:14:30.367Z,991
2017-02-27T13:15:36.349Z,991
2017-02-27T13:16:42.336Z,991
2017-02-27T13:17:48.322Z,991
2017-02-27T13:18:53.645Z,991
2017-02-27T13:19:59.637Z,991
2017-02-27T13:21:05.621Z,991
2017-02-27T13:22:10.945Z,991
2017-02-27T13:23:16.932Z,991
2017-02-27T13:24:22.920Z,991
2017-02-27T13:25:28.913Z,991
2017-02-27T13:26:34.918Z,991
2017-02-27T13:27:40.912Z,991
2017-02-27T13:28:45.782Z,991
2017-02-27T13:29:51.775Z,991
2017-02-27T13:30:57.761Z,991
2017-02-27T13:32:02.647Z,991
2017-02-27T13:33:08.631Z,991
2017-02-27T13:34:14.621Z,991
2017-02-27T13:35:20.605Z,991
2017-02-27T13:36:26.590Z,991
2017-02-27T13:37:31.684Z,991
2017-02-27T13:38:37.571Z,991
2017-02-27T13:39:43.984Z,991
2017-02-27T13:40:49.573Z,991
2017-02-27T13:41:54.905Z,991
2017-02-27T13:43:00.893Z,991
2017-02-27T13:44:06.879Z,991
2017-02-27T13:45:12.864Z,991
2017-02-27T13:46:18.851Z,991
2017-02-27T13:47:24.333Z,991
2017-02-27T13:48:30.322Z,991
2017-02-27T13:49:36.306Z,991
2017-02-27T13:50:42.294Z,991
2017-02-27T13:51:48.280Z,991
2017-02-27T13:52:54.268Z,991
2017-02-27T13:54:00.649Z,991
2017-02-27T13:55:06.488Z,991
2017-02-27T13:56:12.456Z,991
2017-02-27T13:57:18.451Z,991
2017-02-27T13:58:24.443Z,991
2017-02-27T13:59:30.421Z,990
2017-02-27T14:00:36.409Z,991
2017-02-27T14:01:42.395Z,991
2017-02-27T14:02:48.379Z,990
2017-02-27T14:03:54.364Z,990
2017-02-27T14:05:00.349Z,991
2017-02-27T14:06:06.335Z,990
2017-02-27T14:07:12.327Z,991
2017-02-27T14:08:18.312Z,990
2017-02-27T14:09:24.298Z,990
2017-02-27T14:10:30.288Z,990
2017-02-27T14:11:35.609Z,990
2017-02-27T14:12:41.593Z,990
2017-02-27T14:13:47.581Z,990
2017-02-27T14:14:53.570Z,990
2017-02-27T14:15:59.553Z,990
2017-02-27T14:17:05.542Z,990
2017-02-27T14:18:11.528Z,990
2017-02-27T14:19:17.519Z,990
2017-02-27T14:20:23.502Z,990
2017-02-27T14:21:29.488Z,990
2017-02-27T14:22:35.634Z,990
2017-02-27T14:23:41.822Z,990
2017-02-27T14:24:47.800Z,990
2017-02-27T14:25:53.788Z,990
2017-02-27T14:26:59.776Z,990
2017-02-27T14:28:05.760Z,990
2017-02-27T14:29:11.747Z,990
2017-02-27T14:30:17.114Z,990
2017-02-27T14:31:23.099Z,990
2017-02-27T14:32:29.084Z,990
2017-02-27T14:33:35.071Z,990
2017-02-27T14:34:41.451Z,990
2017-02-27T14:35:47.070Z,990
2017-02-27T14:36:53.058Z,990
2017-02-27T14:37:59.046Z,990
2017-02-27T14:39:05.027Z,990
2017-02-27T14:40:11.019Z,990
2017-02-27T14:41:17.007Z,990
2017-02-27T14:42:22.994Z,990
2017-02-27T14:43:28.975Z,990
2017-02-27T14:44:34.307Z,990
2017-02-27T14:45:40.294Z,989
2017-02-27T14:46:46.304Z,989
2017-02-27T14:47:52.284Z,989
2017-02-27T14:48:58.275Z,989
2017-02-27T14:50:04.269Z,989
2017-02-27T14:51:09.171Z,989
2017-02-27T14:52:15.164Z,989
2017-02-27T14:53:21.148Z,989
2017-02-27T14:54:26.578Z,989
2017-02-27T14:55:32.562Z,989
2017-02-27T14:56:38.549Z,989
2017-02-27T14:57:44.537Z,989
2017-02-27T14:58:50.523Z,989
2017-02-27T14:59:56.509Z,989
2017-02-27T15:01:02.493Z,989
2017-02-27T15:02:08.482Z,989
2017-02-27T15:03:14.687Z,989
2017-02-27T15:04:20.488Z,989
2017-02-27T15:05:26.475Z,989
2017-02-27T15:06:32.462Z,989
2017-02-27T15:07:38.452Z,989
2017-02-27T15:08:44.446Z,989
2017-02-27T15:09:50.426Z,989
2017-02-27T15:10:56.418Z,989
2017-02-27T15:12:00.639Z,989
2017-02-27T15:13:06.624Z,989
2017-02-27T15:14:12.613Z,989
2017-02-27T15:15:18.598Z,989
2017-02-27T15:16:24.583Z,989
2017-02-27T15:17:30.569Z,989
2017-02-27T15:18:36.557Z,989
2017-02-27T15:19:42.540Z,989
2017-02-27T15:20:48.528Z,989
2017-02-27T15:21:53.850Z,989
2017-02-27T15:22:59.838Z,989
2017-02-27T15:24:05.161Z,989
2017-02-27T15:25:11.148Z,989